sensor_id;sensor_type;location;lat;lon;timestamp;pressure;altitude;pressure_sealevel;temperature;humidity
39681;BME280;26327;42.550;23.120;2023-04-28T00:01:18;93031.78;;;3.74;88.27
39681;BME280;26327;42.550;23.120;2023-04-28T00:03:44;93018.94;;;3.45;90.39
39681;BME280;26327;42.550;23.120;2023-04-28T00:06:09;93033.22;;;3.29;91.08
39681;BME280;26327;42.550;23.120;2023-04-28T00:08:35;93018.47;;;3.21;92.03
39681;BME280;26327;42.550;23.120;2023-04-28T00:11:01;93022.25;;;2.77;94.39
39681;BME280;26327;42.550;23.120;2023-04-28T00:13:26;93009.94;;;2.71;95.83
39681;BME280;26327;42.550;23.120;2023-04-28T00:15:52;93024.28;;;3.13;94.59
39681;BME280;26327;42.550;23.120;2023-04-28T00:18:18;93026.69;;;3.15;93.49
39681;BME280;26327;42.550;23.120;2023-04-28T00:20:44;92960.66;;;2.67;93.41
39681;BME280;26327;42.550;23.120;2023-04-28T00:23:09;92984.91;;;2.94;92.00
39681;BME280;26327;42.550;23.120;2023-04-28T00:25:35;93033.47;;;3.26;91.73
39681;BME280;26327;42.550;23.120;2023-04-28T00:28:00;93001.97;;;3.14;90.90
39681;BME280;26327;42.550;23.120;2023-04-28T00:30:28;92961.63;;;2.76;90.52
39681;BME280;26327;42.550;23.120;2023-04-28T00:32:54;92958.63;;;2.71;91.41
39681;BME280;26327;42.550;23.120;2023-04-28T00:35:19;93044.00;;;3.13;91.26
39681;BME280;26327;42.550;23.120;2023-04-28T00:37:44;93024.88;;;2.87;92.06
39681;BME280;26327;42.550;23.120;2023-04-28T00:40:10;92975.88;;;2.90;90.87
39681;BME280;26327;42.550;23.120;2023-04-28T00:42:36;93024.06;;;3.45;87.25
39681;BME280;26327;42.550;23.120;2023-04-28T00:45:01;93022.09;;;3.09;89.06
39681;BME280;26327;42.550;23.120;2023-04-28T00:47:34;92947.69;;;2.59;89.52
39681;BME280;26327;42.550;23.120;2023-04-28T00:50:00;93051.13;;;3.00;91.33
39681;BME280;26327;42.550;23.120;2023-04-28T00:52:27;92971.63;;;2.79;89.09
39681;BME280;26327;42.550;23.120;2023-04-28T00:54:53;93049.66;;;3.07;89.78
39681;BME280;26327;42.550;23.120;2023-04-28T00:57:19;92962.25;;;2.59;89.89
39681;BME280;26327;42.550;23.120;2023-04-28T00:59:44;92927.50;;;2.05;91.44
39681;BME280;26327;42.550;23.120;2023-04-28T01:02:10;93054.56;;;2.49;94.62
39681;BME280;26327;42.550;23.120;2023-04-28T01:04:42;93064.31;;;2.86;93.81
39681;BME280;26327;42.550;23.120;2023-04-28T01:07:08;93034.53;;;2.73;92.79
39681;BME280;26327;42.550;23.120;2023-04-28T01:09:33;93058.81;;;3.00;91.78
39681;BME280;26327;42.550;23.120;2023-04-28T01:11:59;92975.56;;;2.43;91.38
39681;BME280;26327;42.550;23.120;2023-04-28T01:14:24;92980.50;;;2.35;92.26
39681;BME280;26327;42.550;23.120;2023-04-28T01:16:50;93032.78;;;2.74;92.34
39681;BME280;26327;42.550;23.120;2023-04-28T01:19:20;93057.84;;;2.91;92.14
39681;BME280;26327;42.550;23.120;2023-04-28T01:21:46;93069.97;;;3.29;89.52
39681;BME280;26327;42.550;23.120;2023-04-28T01:24:12;92984.16;;;2.72;89.56
39681;BME280;26327;42.550;23.120;2023-04-28T01:26:37;92962.00;;;2.62;89.61
39681;BME280;26327;42.550;23.120;2023-04-28T01:29:03;93071.66;;;3.40;88.54
39681;BME280;26327;42.550;23.120;2023-04-28T01:31:28;93017.69;;;2.80;89.59
39681;BME280;26327;42.550;23.120;2023-04-28T01:33:55;93035.56;;;2.92;89.75
39681;BME280;26327;42.550;23.120;2023-04-28T01:36:20;92983.66;;;2.38;90.19
39681;BME280;26327;42.550;23.120;2023-04-28T01:38:48;92965.75;;;1.76;92.34
39681;BME280;26327;42.550;23.120;2023-04-28T01:41:13;93061.00;;;2.22;94.16
39681;BME280;26327;42.550;23.120;2023-04-28T01:43:39;92951.88;;;1.57;94.11
39681;BME280;26327;42.550;23.120;2023-04-28T01:46:04;93060.31;;;2.41;95.20
39681;BME280;26327;42.550;23.120;2023-04-28T01:48:30;92977.84;;;2.15;93.38
39681;BME280;26327;42.550;23.120;2023-04-28T01:50:56;93068.06;;;2.81;91.99
39681;BME280;26327;42.550;23.120;2023-04-28T01:53:21;93040.16;;;2.58;92.55
39681;BME280;26327;42.550;23.120;2023-04-28T01:55:47;92988.34;;;2.12;93.33
39681;BME280;26327;42.550;23.120;2023-04-28T01:58:13;93050.06;;;2.72;92.03
39681;BME280;26327;42.550;23.120;2023-04-28T02:00:38;92985.03;;;2.21;92.29
39681;BME280;26327;42.550;23.120;2023-04-28T02:03:03;92998.56;;;2.03;93.84
39681;BME280;26327;42.550;23.120;2023-04-28T02:05:29;93057.59;;;2.64;93.07
39681;BME280;26327;42.550;23.120;2023-04-28T02:07:54;93061.13;;;2.42;93.24
39681;BME280;26327;42.550;23.120;2023-04-28T02:10:20;93073.75;;;2.55;94.08
39681;BME280;26327;42.550;23.120;2023-04-28T02:12:45;92984.53;;;1.86;94.41
39681;BME280;26327;42.550;23.120;2023-04-28T02:15:11;93051.25;;;2.16;94.98
39681;BME280;26327;42.550;23.120;2023-04-28T02:17:36;93085.06;;;2.31;94.89
39681;BME280;26327;42.550;23.120;2023-04-28T02:20:02;93067.25;;;2.30;94.45
39681;BME280;26327;42.550;23.120;2023-04-28T02:22:27;93066.94;;;2.44;94.53
39681;BME280;26327;42.550;23.120;2023-04-28T02:24:53;93071.56;;;2.29;94.38
39681;BME280;26327;42.550;23.120;2023-04-28T02:27:19;93069.50;;;2.44;94.20
39681;BME280;26327;42.550;23.120;2023-04-28T02:29:45;92996.25;;;2.00;93.67
39681;BME280;26327;42.550;23.120;2023-04-28T02:32:10;93084.13;;;2.83;91.65
39681;BME280;26327;42.550;23.120;2023-04-28T02:34:36;93021.03;;;2.41;90.62
39681;BME280;26327;42.550;23.120;2023-04-28T02:37:01;93045.56;;;2.64;89.90
39681;BME280;26327;42.550;23.120;2023-04-28T02:39:27;92976.69;;;1.78;91.52
39681;BME280;26327;42.550;23.120;2023-04-28T02:41:54;93083.81;;;2.26;92.08
39681;BME280;26327;42.550;23.120;2023-04-28T02:44:20;93086.31;;;2.16;92.08
39681;BME280;26327;42.550;23.120;2023-04-28T02:46:45;93074.19;;;2.39;90.84
39681;BME280;26327;42.550;23.120;2023-04-28T02:49:11;93089.59;;;2.39;92.15
39681;BME280;26327;42.550;23.120;2023-04-28T02:51:36;93096.94;;;2.32;91.88
39681;BME280;26327;42.550;23.120;2023-04-28T02:54:02;93001.72;;;1.74;92.36
39681;BME280;26327;42.550;23.120;2023-04-28T02:56:27;93023.31;;;2.13;90.53
39681;BME280;26327;42.550;23.120;2023-04-28T02:58:54;93054.69;;;2.06;92.06
39681;BME280;26327;42.550;23.120;2023-04-28T03:01:19;93084.81;;;1.81;93.01
39681;BME280;26327;42.550;23.120;2023-04-28T03:03:45;93119.63;;;2.16;94.27
39681;BME280;26327;42.550;23.120;2023-04-28T03:06:10;93042.91;;;1.82;93.63
39681;BME280;26327;42.550;23.120;2023-04-28T03:08:36;93097.00;;;2.21;92.96
39681;BME280;26327;42.550;23.120;2023-04-28T03:11:01;93102.63;;;2.36;91.86
39681;BME280;26327;42.550;23.120;2023-04-28T03:13:26;93108.41;;;2.49;90.68
39681;BME280;26327;42.550;23.120;2023-04-28T03:15:54;93106.94;;;2.14;91.88
39681;BME280;26327;42.550;23.120;2023-04-28T03:18:19;93046.19;;;1.52;93.06
39681;BME280;26327;42.550;23.120;2023-04-28T03:20:46;93109.38;;;1.84;94.96
39681;BME280;26327;42.550;23.120;2023-04-28T03:23:11;93127.69;;;1.79;96.35
39681;BME280;26327;42.550;23.120;2023-04-28T03:25:36;93068.91;;;1.78;94.28
39681;BME280;26327;42.550;23.120;2023-04-28T03:28:02;93115.63;;;2.02;94.75
39681;BME280;26327;42.550;23.120;2023-04-28T03:30:27;93113.88;;;2.03;93.98
39681;BME280;26327;42.550;23.120;2023-04-28T03:32:53;93054.63;;;1.64;93.65
39681;BME280;26327;42.550;23.120;2023-04-28T03:35:18;93048.19;;;1.49;93.94
39681;BME280;26327;42.550;23.120;2023-04-28T03:37:43;93056.88;;;1.57;93.93
39681;BME280;26327;42.550;23.120;2023-04-28T03:40:09;93132.44;;;1.95;94.64
39681;BME280;26327;42.550;23.120;2023-04-28T03:42:35;93088.50;;;1.68;94.59
39681;BME280;26327;42.550;23.120;2023-04-28T03:45:00;93144.69;;;1.80;95.05
39681;BME280;26327;42.550;23.120;2023-04-28T03:47:26;93086.09;;;1.55;94.73
39681;BME280;26327;42.550;23.120;2023-04-28T03:49:52;93168.06;;;1.87;95.07
39681;BME280;26327;42.550;23.120;2023-04-28T03:52:17;93140.38;;;1.92;96.36
39681;BME280;26327;42.550;23.120;2023-04-28T03:54:43;93154.88;;;2.03;95.89
39681;BME280;26327;42.550;23.120;2023-04-28T03:57:08;93160.03;;;2.24;95.23
39681;BME280;26327;42.550;23.120;2023-04-28T03:59:34;93162.00;;;1.99;94.83
39681;BME280;26327;42.550;23.120;2023-04-28T04:01:59;93126.88;;;1.79;95.41
39681;BME280;26327;42.550;23.120;2023-04-28T04:04:24;93170.50;;;2.00;95.53
39681;BME280;26327;42.550;23.120;2023-04-28T04:06:50;93138.25;;;1.86;95.21
39681;BME280;26327;42.550;23.120;2023-04-28T04:09:16;93145.25;;;1.84;95.31
39681;BME280;26327;42.550;23.120;2023-04-28T04:11:41;93161.00;;;1.91;94.69
39681;BME280;26327;42.550;23.120;2023-04-28T04:14:07;93136.84;;;1.61;97.06
39681;BME280;26327;42.550;23.120;2023-04-28T04:16:32;93018.53;;;0.81;97.49
39681;BME280;26327;42.550;23.120;2023-04-28T04:18:58;93171.69;;;1.96;97.46
39681;BME280;26327;42.550;23.120;2023-04-28T04:21:23;93100.44;;;1.89;95.39
39681;BME280;26327;42.550;23.120;2023-04-28T04:23:49;93082.69;;;2.18;93.86
39681;BME280;26327;42.550;23.120;2023-04-28T04:26:14;93165.81;;;2.78;92.66
39681;BME280;26327;42.550;23.120;2023-04-28T04:28:40;93100.53;;;2.41;92.83
39681;BME280;26327;42.550;23.120;2023-04-28T04:31:05;93031.22;;;2.31;91.22
39681;BME280;26327;42.550;23.120;2023-04-28T04:33:31;93172.47;;;3.11;91.01
39681;BME280;26327;42.550;23.120;2023-04-28T04:35:58;93129.06;;;2.99;90.42
39681;BME280;26327;42.550;23.120;2023-04-28T04:38:24;93111.72;;;3.22;88.69
39681;BME280;26327;42.550;23.120;2023-04-28T04:40:49;93102.38;;;3.21;89.15
39681;BME280;26327;42.550;23.120;2023-04-28T04:43:15;93117.09;;;3.49;87.25
39681;BME280;26327;42.550;23.120;2023-04-28T04:45:40;93185.38;;;4.01;86.75
39681;BME280;26327;42.550;23.120;2023-04-28T04:48:05;93154.91;;;3.87;86.61
39681;BME280;26327;42.550;23.120;2023-04-28T04:50:31;93187.91;;;3.92;86.88
39681;BME280;26327;42.550;23.120;2023-04-28T04:52:57;93186.22;;;4.31;86.94
39681;BME280;26327;42.550;23.120;2023-04-28T04:55:22;93094.66;;;3.70;86.01
39681;BME280;26327;42.550;23.120;2023-04-28T04:57:47;93098.50;;;3.95;84.96
39681;BME280;26327;42.550;23.120;2023-04-28T05:00:13;93191.91;;;4.54;82.85
39681;BME280;26327;42.550;23.120;2023-04-28T05:02:40;93167.13;;;4.53;82.56
39681;BME280;26327;42.550;23.120;2023-04-28T05:05:06;93199.22;;;4.87;81.78
39681;BME280;26327;42.550;23.120;2023-04-28T05:07:33;93135.16;;;4.55;81.91
39681;BME280;26327;42.550;23.120;2023-04-28T05:09:58;93175.56;;;5.11;81.36
39681;BME280;26327;42.550;23.120;2023-04-28T05:12:24;93175.31;;;5.04;80.49
39681;BME280;26327;42.550;23.120;2023-04-28T05:14:49;93195.56;;;5.36;79.76
39681;BME280;26327;42.550;23.120;2023-04-28T05:17:14;93136.97;;;5.38;74.58
39681;BME280;26327;42.550;23.120;2023-04-28T05:19:40;93125.38;;;5.52;75.20
39681;BME280;26327;42.550;23.120;2023-04-28T05:22:05;93080.06;;;5.32;73.47
39681;BME280;26327;42.550;23.120;2023-04-28T05:24:31;93104.16;;;5.68;72.46
39681;BME280;26327;42.550;23.120;2023-04-28T05:26:59;93196.97;;;6.41;70.45
39681;BME280;26327;42.550;23.120;2023-04-28T05:29:25;93131.16;;;6.19;70.81
39681;BME280;26327;42.550;23.120;2023-04-28T05:31:51;93130.44;;;6.52;66.99
39681;BME280;26327;42.550;23.120;2023-04-28T05:34:17;93187.19;;;7.06;64.69
39681;BME280;26327;42.550;23.120;2023-04-28T05:36:43;93188.22;;;7.39;60.43
39681;BME280;26327;42.550;23.120;2023-04-28T05:39:08;93182.78;;;7.50;60.58
39681;BME280;26327;42.550;23.120;2023-04-28T05:41:34;93032.53;;;6.77;58.87
39681;BME280;26327;42.550;23.120;2023-04-28T05:44:03;93139.44;;;7.78;54.57
39681;BME280;26327;42.550;23.120;2023-04-28T05:46:28;93191.81;;;8.14;54.73
39681;BME280;26327;42.550;23.120;2023-04-28T05:48:54;93192.44;;;8.58;52.72
39681;BME280;26327;42.550;23.120;2023-04-28T05:51:19;93184.03;;;8.72;52.28
39681;BME280;26327;42.550;23.120;2023-04-28T05:53:46;93128.81;;;8.64;52.44
39681;BME280;26327;42.550;23.120;2023-04-28T05:56:13;93206.06;;;9.50;49.96
39681;BME280;26327;42.550;23.120;2023-04-28T05:58:39;93144.16;;;9.30;49.80
39681;BME280;26327;42.550;23.120;2023-04-28T06:01:05;93179.06;;;9.75;48.88
39681;BME280;26327;42.550;23.120;2023-04-28T06:03:30;93189.22;;;9.93;48.23
39681;BME280;26327;42.550;23.120;2023-04-28T06:05:56;93185.84;;;10.31;47.03
39681;BME280;26327;42.550;23.120;2023-04-28T06:08:21;93193.38;;;11.03;44.25
39681;BME280;26327;42.550;23.120;2023-04-28T06:10:46;93119.88;;;10.86;44.44
39681;BME280;26327;42.550;23.120;2023-04-28T06:13:12;93112.91;;;11.39;42.99
39681;BME280;26327;42.550;23.120;2023-04-28T06:15:37;93136.63;;;12.03;42.66
39681;BME280;26327;42.550;23.120;2023-04-28T06:18:03;93127.84;;;12.25;40.23
39681;BME280;26327;42.550;23.120;2023-04-28T06:20:30;93110.56;;;11.74;38.99
39681;BME280;26327;42.550;23.120;2023-04-28T06:22:56;93177.13;;;12.56;40.08
39681;BME280;26327;42.550;23.120;2023-04-28T06:25:21;93192.31;;;13.10;38.50
39681;BME280;26327;42.550;23.120;2023-04-28T06:27:46;93126.72;;;13.35;37.66
39681;BME280;26327;42.550;23.120;2023-04-28T06:30:20;93156.22;;;13.63;37.40
39681;BME280;26327;42.550;23.120;2023-04-28T06:32:45;93167.97;;;14.56;35.11
39681;BME280;26327;42.550;23.120;2023-04-28T06:35:11;93186.00;;;14.92;35.36
39681;BME280;26327;42.550;23.120;2023-04-28T06:37:36;93122.44;;;15.64;33.23
39681;BME280;26327;42.550;23.120;2023-04-28T06:40:02;93174.50;;;16.25;33.70
39681;BME280;26327;42.550;23.120;2023-04-28T06:42:27;93158.28;;;16.93;32.40
39681;BME280;26327;42.550;23.120;2023-04-28T06:44:53;93182.59;;;18.01;30.13
39681;BME280;26327;42.550;23.120;2023-04-28T06:47:18;93155.47;;;18.37;29.04
39681;BME280;26327;42.550;23.120;2023-04-28T06:49:44;93108.53;;;19.42;26.74
39681;BME280;26327;42.550;23.120;2023-04-28T06:52:11;93158.22;;;19.92;27.33
39681;BME280;26327;42.550;23.120;2023-04-28T06:54:38;93162.94;;;20.77;26.31
39681;BME280;26327;42.550;23.120;2023-04-28T06:57:03;93108.19;;;20.44;25.14
39681;BME280;26327;42.550;23.120;2023-04-28T06:59:29;93170.72;;;21.86;23.72
39681;BME280;26327;42.550;23.120;2023-04-28T07:01:55;93116.34;;;20.83;24.53
39681;BME280;26327;42.550;23.120;2023-04-28T07:04:21;93107.41;;;22.56;23.90
39681;BME280;26327;42.550;23.120;2023-04-28T07:06:46;93121.50;;;23.60;22.91
39681;BME280;26327;42.550;23.120;2023-04-28T07:09:11;93172.00;;;23.70;20.64
39681;BME280;26327;42.550;23.120;2023-04-28T07:11:37;93126.78;;;23.28;20.69
39681;BME280;26327;42.550;23.120;2023-04-28T07:14:02;93159.28;;;24.41;20.75
39681;BME280;26327;42.550;23.120;2023-04-28T07:16:28;93159.97;;;24.73;20.87
39681;BME280;26327;42.550;23.120;2023-04-28T07:18:53;93107.19;;;24.35;21.02
39681;BME280;26327;42.550;23.120;2023-04-28T07:21:18;93126.75;;;25.84;19.53
39681;BME280;26327;42.550;23.120;2023-04-28T07:23:45;93152.56;;;26.24;19.30
39681;BME280;26327;42.550;23.120;2023-04-28T07:26:11;93073.00;;;25.72;19.18
39681;BME280;26327;42.550;23.120;2023-04-28T07:28:40;93069.44;;;26.32;18.51
39681;BME280;26327;42.550;23.120;2023-04-28T07:31:06;93103.72;;;26.64;18.31
39681;BME280;26327;42.550;23.120;2023-04-28T07:33:31;93157.72;;;26.95;17.92
39681;BME280;26327;42.550;23.120;2023-04-28T07:35:56;93139.91;;;26.81;18.07
39681;BME280;26327;42.550;23.120;2023-04-28T07:38:22;93150.38;;;26.67;17.89
39681;BME280;26327;42.550;23.120;2023-04-28T07:40:47;93151.47;;;26.56;18.22
39681;BME280;26327;42.550;23.120;2023-04-28T07:43:13;93085.22;;;25.88;18.00
39681;BME280;26327;42.550;23.120;2023-04-28T07:45:38;93158.19;;;26.02;18.87
39681;BME280;26327;42.550;23.120;2023-04-28T07:48:04;93144.06;;;25.71;19.59
39681;BME280;26327;42.550;23.120;2023-04-28T07:50:30;93036.00;;;25.40;19.07
39681;BME280;26327;42.550;23.120;2023-04-28T07:52:57;93156.31;;;25.88;18.12
39681;BME280;26327;42.550;23.120;2023-04-28T07:55:23;93093.44;;;25.36;17.98
39681;BME280;26327;42.550;23.120;2023-04-28T07:57:48;93146.16;;;25.54;19.02
39681;BME280;26327;42.550;23.120;2023-04-28T08:00:14;93093.72;;;24.09;19.37
39681;BME280;26327;42.550;23.120;2023-04-28T08:02:40;93096.88;;;24.43;19.60
39681;BME280;26327;42.550;23.120;2023-04-28T08:05:05;93094.41;;;24.94;19.21
39681;BME280;26327;42.550;23.120;2023-04-28T08:07:33;93152.28;;;25.55;18.77
39681;BME280;26327;42.550;23.120;2023-04-28T08:09:58;93140.59;;;25.86;17.69
39681;BME280;26327;42.550;23.120;2023-04-28T08:12:25;93134.16;;;26.28;17.99
39681;BME280;26327;42.550;23.120;2023-04-28T08:14:50;93091.56;;;26.23;17.52
39681;BME280;26327;42.550;23.120;2023-04-28T08:17:16;93148.63;;;27.12;17.70
39681;BME280;26327;42.550;23.120;2023-04-28T08:19:42;93164.00;;;28.47;16.33
39681;BME280;26327;42.550;23.120;2023-04-28T08:22:10;93114.66;;;28.88;15.28
39681;BME280;26327;42.550;23.120;2023-04-28T08:24:36;93135.19;;;29.35;14.80
39681;BME280;26327;42.550;23.120;2023-04-28T08:27:01;93087.28;;;28.48;15.68
39681;BME280;26327;42.550;23.120;2023-04-28T08:29:31;93152.78;;;29.78;15.53
39681;BME280;26327;42.550;23.120;2023-04-28T08:31:56;93151.56;;;30.55;14.95
39681;BME280;26327;42.550;23.120;2023-04-28T08:34:22;93095.47;;;30.72;14.92
39681;BME280;26327;42.550;23.120;2023-04-28T08:36:48;93151.47;;;32.14;13.93
39681;BME280;26327;42.550;23.120;2023-04-28T08:39:13;93090.28;;;32.34;13.48
39681;BME280;26327;42.550;23.120;2023-04-28T08:41:39;93136.81;;;33.05;12.55
39681;BME280;26327;42.550;23.120;2023-04-28T08:44:07;93139.03;;;32.41;13.23
39681;BME280;26327;42.550;23.120;2023-04-28T08:46:33;93120.53;;;31.94;14.04
39681;BME280;26327;42.550;23.120;2023-04-28T08:49:00;93144.97;;;32.82;12.73
39681;BME280;26327;42.550;23.120;2023-04-28T08:51:37;93140.13;;;33.76;12.17
39681;BME280;26327;42.550;23.120;2023-04-28T08:54:06;93131.75;;;34.12;12.67
39681;BME280;26327;42.550;23.120;2023-04-28T08:56:32;93069.97;;;34.45;12.31
39681;BME280;26327;42.550;23.120;2023-04-28T08:59:03;93134.34;;;34.72;12.38
39681;BME280;26327;42.550;23.120;2023-04-28T09:01:31;93093.06;;;33.99;12.18
39681;BME280;26327;42.550;23.120;2023-04-28T09:03:59;93113.31;;;32.88;12.32
39681;BME280;26327;42.550;23.120;2023-04-28T09:06:25;93086.56;;;33.66;12.14
39681;BME280;26327;42.550;23.120;2023-04-28T09:08:51;93126.41;;;34.76;12.48
39681;BME280;26327;42.550;23.120;2023-04-28T09:11:16;93127.94;;;35.32;11.36
39681;BME280;26327;42.550;23.120;2023-04-28T09:13:42;93087.03;;;34.75;11.21
39681;BME280;26327;42.550;23.120;2023-04-28T09:16:07;93121.63;;;33.83;12.09
39681;BME280;26327;42.550;23.120;2023-04-28T09:18:33;93116.69;;;34.84;11.95
39681;BME280;26327;42.550;23.120;2023-04-28T09:21:06;93074.66;;;34.10;11.91
39681;BME280;26327;42.550;23.120;2023-04-28T09:23:32;93126.47;;;35.06;11.52
39681;BME280;26327;42.550;23.120;2023-04-28T09:26:01;93123.78;;;34.97;11.19
39681;BME280;26327;42.550;23.120;2023-04-28T09:28:28;93110.97;;;35.53;10.93
39681;BME280;26327;42.550;23.120;2023-04-28T09:30:53;93115.38;;;34.43;11.29
39681;BME280;26327;42.550;23.120;2023-04-28T09:33:19;93073.94;;;34.48;10.91
39681;BME280;26327;42.550;23.120;2023-04-28T09:35:46;93107.13;;;33.44;11.62
39681;BME280;26327;42.550;23.120;2023-04-28T09:38:15;93082.06;;;34.39;11.35
39681;BME280;26327;42.550;23.120;2023-04-28T09:40:55;93095.41;;;35.71;11.14
39681;BME280;26327;42.550;23.120;2023-04-28T09:43:25;93108.72;;;36.50;11.61
39681;BME280;26327;42.550;23.120;2023-04-28T09:45:51;93099.44;;;36.06;10.54
39681;BME280;26327;42.550;23.120;2023-04-28T09:48:29;93090.09;;;36.16;11.16
39681;BME280;26327;42.550;23.120;2023-04-28T09:50:55;93098.31;;;36.40;10.91
39681;BME280;26327;42.550;23.120;2023-04-28T09:53:22;93099.88;;;35.67;10.05
39681;BME280;26327;42.550;23.120;2023-04-28T09:55:49;93010.72;;;35.79;10.89
39681;BME280;26327;42.550;23.120;2023-04-28T09:58:21;93103.53;;;36.45;9.64
39681;BME280;26327;42.550;23.120;2023-04-28T10:00:56;93095.03;;;37.04;10.43
39681;BME280;26327;42.550;23.120;2023-04-28T10:03:23;93086.41;;;36.53;9.82
39681;BME280;26327;42.550;23.120;2023-04-28T10:05:50;93084.81;;;37.87;9.12
39681;BME280;26327;42.550;23.120;2023-04-28T10:08:18;93049.06;;;36.59;9.37
39681;BME280;26327;42.550;23.120;2023-04-28T10:10:46;93041.50;;;37.50;9.08
39681;BME280;26327;42.550;23.120;2023-04-28T10:13:15;93061.59;;;37.49;8.96
39681;BME280;26327;42.550;23.120;2023-04-28T10:15:41;93033.72;;;37.48;8.88
39681;BME280;26327;42.550;23.120;2023-04-28T10:18:07;93076.00;;;37.65;9.45
39681;BME280;26327;42.550;23.120;2023-04-28T10:20:33;93092.94;;;37.87;9.42
39681;BME280;26327;42.550;23.120;2023-04-28T10:25:41;92976.09;;;36.63;9.36
39681;BME280;26327;42.550;23.120;2023-04-28T10:28:08;93008.00;;;37.30;9.12
39681;BME280;26327;42.550;23.120;2023-04-28T10:30:34;93075.31;;;37.68;10.27
39681;BME280;26327;42.550;23.120;2023-04-28T10:38:06;93012.41;;;36.62;9.77
39681;BME280;26327;42.550;23.120;2023-04-28T10:43:01;92982.66;;;34.88;10.30
39681;BME280;26327;42.550;23.120;2023-04-28T10:58:49;93026.53;;;32.34;11.92
39681;BME280;26327;42.550;23.120;2023-04-28T11:01:31;92989.28;;;31.43;12.45
39681;BME280;26327;42.550;23.120;2023-04-28T11:04:08;93016.00;;;30.35;13.53
39681;BME280;26327;42.550;23.120;2023-04-28T11:16:52;93006.06;;;29.05;15.42
39681;BME280;26327;42.550;23.120;2023-04-28T11:19:22;92943.03;;;28.38;15.00
39681;BME280;26327;42.550;23.120;2023-04-28T11:21:49;92927.16;;;28.04;14.09
39681;BME280;26327;42.550;23.120;2023-04-28T11:24:16;92991.09;;;26.98;16.55
39681;BME280;26327;42.550;23.120;2023-04-28T11:26:41;92942.06;;;26.45;16.09
39681;BME280;26327;42.550;23.120;2023-04-28T11:29:08;92993.13;;;25.82;17.81
39681;BME280;26327;42.550;23.120;2023-04-28T11:31:34;92979.63;;;25.07;20.36
39681;BME280;26327;42.550;23.120;2023-04-28T11:34:03;92996.63;;;25.22;18.48
39681;BME280;26327;42.550;23.120;2023-04-28T11:36:32;92985.91;;;24.61;18.99
39681;BME280;26327;42.550;23.120;2023-04-28T11:39:00;92980.66;;;23.61;18.67
39681;BME280;26327;42.550;23.120;2023-04-28T11:41:25;92973.91;;;23.85;19.33
39681;BME280;26327;42.550;23.120;2023-04-28T11:43:52;92995.09;;;23.75;20.28
39681;BME280;26327;42.550;23.120;2023-04-28T11:46:22;92931.66;;;22.95;20.53
39681;BME280;26327;42.550;23.120;2023-04-28T11:48:47;92996.66;;;23.02;19.63
39681;BME280;26327;42.550;23.120;2023-04-28T11:51:33;92993.59;;;22.13;20.33
39681;BME280;26327;42.550;23.120;2023-04-28T11:53:59;92901.75;;;21.09;21.28
39681;BME280;26327;42.550;23.120;2023-04-28T11:56:26;92964.50;;;21.02;21.48
39681;BME280;26327;42.550;23.120;2023-04-28T11:59:02;92941.47;;;20.07;21.36
39681;BME280;26327;42.550;23.120;2023-04-28T12:01:29;92983.34;;;20.32;21.15
39681;BME280;26327;42.550;23.120;2023-04-28T12:03:55;92968.63;;;20.48;23.34
39681;BME280;26327;42.550;23.120;2023-04-28T12:06:21;92973.22;;;19.48;21.80
39681;BME280;26327;42.550;23.120;2023-04-28T12:08:47;92961.06;;;19.47;24.31
39681;BME280;26327;42.550;23.120;2023-04-28T12:11:13;92973.06;;;19.78;24.55
39681;BME280;26327;42.550;23.120;2023-04-28T12:13:40;92833.91;;;18.53;23.82
39681;BME280;26327;42.550;23.120;2023-04-28T12:16:06;92931.88;;;19.26;22.69
39681;BME280;26327;42.550;23.120;2023-04-28T12:18:33;92886.09;;;18.68;24.34
39681;BME280;26327;42.550;23.120;2023-04-28T12:20:59;92957.41;;;19.48;25.67
39681;BME280;26327;42.550;23.120;2023-04-28T12:23:32;92955.72;;;19.54;24.98
39681;BME280;26327;42.550;23.120;2023-04-28T12:25:57;92947.81;;;19.54;25.29
39681;BME280;26327;42.550;23.120;2023-04-28T12:28:34;92958.78;;;19.63;24.27
39681;BME280;26327;42.550;23.120;2023-04-28T12:31:05;92949.75;;;19.47;23.63
39681;BME280;26327;42.550;23.120;2023-04-28T12:33:31;92959.44;;;18.76;24.68
39681;BME280;26327;42.550;23.120;2023-04-28T12:36:03;92929.69;;;18.76;24.80
39681;BME280;26327;42.550;23.120;2023-04-28T12:38:29;92949.16;;;18.86;26.66
39681;BME280;26327;42.550;23.120;2023-04-28T12:40:55;92867.50;;;18.40;26.32
39681;BME280;26327;42.550;23.120;2023-04-28T12:43:21;92949.06;;;18.93;24.65
39681;BME280;26327;42.550;23.120;2023-04-28T12:45:52;92926.25;;;18.75;24.53
39681;BME280;26327;42.550;23.120;2023-04-28T12:48:17;92950.88;;;18.69;24.90
39681;BME280;26327;42.550;23.120;2023-04-28T12:50:43;92930.38;;;18.83;25.57
39681;BME280;26327;42.550;23.120;2023-04-28T12:53:09;92918.63;;;18.97;26.39
39681;BME280;26327;42.550;23.120;2023-04-28T12:55:35;92942.09;;;18.99;25.90
39681;BME280;26327;42.550;23.120;2023-04-28T12:58:03;92909.78;;;18.92;23.92
39681;BME280;26327;42.550;23.120;2023-04-28T13:00:29;92914.47;;;18.78;24.63
39681;BME280;26327;42.550;23.120;2023-04-28T13:02:54;92935.41;;;18.84;24.81
39681;BME280;26327;42.550;23.120;2023-04-28T13:05:20;92867.72;;;18.27;24.52
39681;BME280;26327;42.550;23.120;2023-04-28T13:07:45;92932.06;;;18.54;25.77
39681;BME280;26327;42.550;23.120;2023-04-28T13:10:11;92917.44;;;18.81;25.21
39681;BME280;26327;42.550;23.120;2023-04-28T13:12:37;92934.56;;;18.61;26.13
39681;BME280;26327;42.550;23.120;2023-04-28T13:15:03;92876.59;;;18.02;24.71
39681;BME280;26327;42.550;23.120;2023-04-28T13:17:30;92881.84;;;18.02;25.55
39681;BME280;26327;42.550;23.120;2023-04-28T13:19:55;92802.00;;;17.55;26.27
39681;BME280;26327;42.550;23.120;2023-04-28T13:22:21;92878.88;;;17.80;25.59
39681;BME280;26327;42.550;23.120;2023-04-28T13:24:47;92919.09;;;17.99;25.47